sensor_id;sensor_type;location;lat;lon;timestamp;pressure;altitude;pressure_sealevel;temperature;humidity
75617;BME280;64200;55.426;37.758;2023-03-25T00:00:21;98175.25;;;4.37;80.08
75617;BME280;64200;55.426;37.758;2023-03-25T00:05:22;98182.44;;;4.44;79.47
75617;BME280;64200;55.426;37.758;2023-03-25T00:10:22;98173.41;;;4.43;79.29
75617;BME280;64200;55.426;37.758;2023-03-25T00:15:23;98172.94;;;4.45;79.40
75617;BME280;64200;55.426;37.758;2023-03-25T00:20:24;98173.06;;;4.41;80.04
75617;BME280;64200;55.426;37.758;2023-03-25T00:25:25;98162.94;;;4.38;79.93
75617;BME280;64200;55.426;37.758;2023-03-25T00:30:25;98149.59;;;4.64;79.38
75617;BME280;64200;55.426;37.758;2023-03-25T00:35:26;98152.69;;;4.48;80.05
75617;BME280;64200;55.426;37.758;2023-03-25T00:40:30;98146.69;;;4.49;80.24
75617;BME280;64200;55.426;37.758;2023-03-25T00:45:33;98140.72;;;4.51;79.89
75617;BME280;64200;55.426;37.758;2023-03-25T00:50:34;98125.38;;;4.50;79.89
75617;BME280;64200;55.426;37.758;2023-03-25T00:55:35;98129.97;;;4.53;80.83
75617;BME280;64200;55.426;37.758;2023-03-25T01:00:35;98118.16;;;4.52;80.66
75617;BME280;64200;55.426;37.758;2023-03-25T01:05:36;98120.31;;;4.57;80.04
75617;BME280;64200;55.426;37.758;2023-03-25T01:10:36;98108.03;;;4.58;80.21
75617;BME280;64200;55.426;37.758;2023-03-25T01:15:38;98113.53;;;4.58;80.53
75617;BME280;64200;55.426;37.758;2023-03-25T01:20:40;98102.97;;;4.57;80.44
75617;BME280;64200;55.426;37.758;2023-03-25T01:25:40;98105.56;;;4.61;79.87
75617;BME280;64200;55.426;37.758;2023-03-25T01:30:42;98092.53;;;4.61;80.02
75617;BME280;64200;55.426;37.758;2023-03-25T01:35:43;98083.78;;;4.63;80.48
75617;BME280;64200;55.426;37.758;2023-03-25T01:40:47;98076.72;;;4.71;79.84
75617;BME280;64200;55.426;37.758;2023-03-25T01:45:49;98056.59;;;4.70;79.46
75617;BME280;64200;55.426;37.758;2023-03-25T01:51:02;98038.19;;;4.67;79.17
75617;BME280;64200;55.426;37.758;2023-03-25T01:56:06;98040.00;;;4.70;79.56
75617;BME280;64200;55.426;37.758;2023-03-25T02:01:11;98031.25;;;4.81;79.47
75617;BME280;64200;55.426;37.758;2023-03-25T02:06:21;98031.34;;;4.87;78.94
75617;BME280;64200;55.426;37.758;2023-03-25T02:11:26;98022.91;;;4.90;78.80
75617;BME280;64200;55.426;37.758;2023-03-25T02:32:52;98001.56;;;4.91;78.22
75617;BME280;64200;55.426;37.758;2023-03-25T02:43:41;97987.81;;;5.06;78.40
75617;BME280;64200;55.426;37.758;2023-03-25T02:48:55;97982.84;;;5.19;78.07
75617;BME280;64200;55.426;37.758;2023-03-25T02:54:01;97979.09;;;5.32;77.67
75617;BME280;64200;55.426;37.758;2023-03-25T02:59:03;97979.13;;;5.47;77.17
75617;BME280;64200;55.426;37.758;2023-03-25T03:04:07;97957.56;;;5.51;76.98
75617;BME280;64200;55.426;37.758;2023-03-25T03:14:30;97944.81;;;5.53;76.73
75617;BME280;64200;55.426;37.758;2023-03-25T03:19:37;97936.72;;;5.65;76.38
75617;BME280;64200;55.426;37.758;2023-03-25T03:24:44;97929.97;;;5.66;76.50
75617;BME280;64200;55.426;37.758;2023-03-25T03:30:02;97923.56;;;5.74;75.83
75617;BME280;64200;55.426;37.758;2023-03-25T03:35:08;97919.09;;;5.77;75.98
75617;BME280;64200;55.426;37.758;2023-03-25T03:40:15;97914.41;;;5.83;75.99
75617;BME280;64200;55.426;37.758;2023-03-25T03:45:28;97883.81;;;5.87;75.85
75617;BME280;64200;55.426;37.758;2023-03-25T03:50:33;97884.88;;;6.04;75.68
75617;BME280;64200;55.426;37.758;2023-03-25T03:56:06;97873.50;;;6.02;75.95
75617;BME280;64200;55.426;37.758;2023-03-25T04:12:09;97849.75;;;6.46;74.96
75617;BME280;64200;55.426;37.758;2023-03-25T04:17:12;97856.22;;;6.58;73.74
75617;BME280;64200;55.426;37.758;2023-03-25T04:22:15;97851.28;;;6.67;73.86
75617;BME280;64200;55.426;37.758;2023-03-25T04:27:17;97856.00;;;6.82;73.43
75617;BME280;64200;55.426;37.758;2023-03-25T04:32:21;97835.97;;;6.93;73.20
75617;BME280;64200;55.426;37.758;2023-03-25T04:37:26;97829.28;;;6.99;73.47
75617;BME280;64200;55.426;37.758;2023-03-25T04:42:26;97826.72;;;6.96;72.72
75617;BME280;64200;55.426;37.758;2023-03-25T04:47:32;97822.25;;;7.04;72.93
75617;BME280;64200;55.426;37.758;2023-03-25T04:52:32;97806.19;;;7.08;72.95
75617;BME280;64200;55.426;37.758;2023-03-25T04:57:33;97793.94;;;7.20;72.53
75617;BME280;64200;55.426;37.758;2023-03-25T05:02:34;97797.09;;;7.34;72.32
75617;BME280;64200;55.426;37.758;2023-03-25T05:07:34;97804.41;;;7.31;72.46
75617;BME280;64200;55.426;37.758;2023-03-25T05:12:35;97793.56;;;7.07;72.77
75617;BME280;64200;55.426;37.758;2023-03-25T05:17:36;97790.03;;;7.07;73.44
75617;BME280;64200;55.426;37.758;2023-03-25T05:22:37;97795.00;;;7.23;72.95
75617;BME280;64200;55.426;37.758;2023-03-25T05:27:37;97794.59;;;7.10;73.49
75617;BME280;64200;55.426;37.758;2023-03-25T05:32:38;97790.25;;;7.29;73.66
75617;BME280;64200;55.426;37.758;2023-03-25T05:37:40;97797.31;;;7.88;72.17
75617;BME280;64200;55.426;37.758;2023-03-25T05:42:41;97787.69;;;7.84;72.22
75617;BME280;64200;55.426;37.758;2023-03-25T05:47:46;97805.09;;;7.84;72.41
75617;BME280;64200;55.426;37.758;2023-03-25T05:52:46;97807.75;;;7.67;72.75
75617;BME280;64200;55.426;37.758;2023-03-25T05:57:48;97799.13;;;7.60;73.07
75617;BME280;64200;55.426;37.758;2023-03-25T06:02:49;97779.13;;;7.87;73.28
75617;BME280;64200;55.426;37.758;2023-03-25T06:07:51;97768.69;;;8.08;72.81
75617;BME280;64200;55.426;37.758;2023-03-25T06:12:55;97767.00;;;8.22;72.12
75617;BME280;64200;55.426;37.758;2023-03-25T06:17:55;97767.84;;;8.40;71.60
75617;BME280;64200;55.426;37.758;2023-03-25T06:22:56;97770.28;;;8.70;71.76
75617;BME280;64200;55.426;37.758;2023-03-25T06:27:56;97754.47;;;9.10;70.67
75617;BME280;64200;55.426;37.758;2023-03-25T06:33:02;97756.50;;;9.04;71.10
75617;BME280;64200;55.426;37.758;2023-03-25T06:38:05;97763.09;;;9.23;70.97
75617;BME280;64200;55.426;37.758;2023-03-25T06:43:05;97752.50;;;9.50;69.59
75617;BME280;64200;55.426;37.758;2023-03-25T06:48:06;97750.44;;;10.13;68.12
75617;BME280;64200;55.426;37.758;2023-03-25T06:53:07;97733.75;;;9.90;68.34
75617;BME280;64200;55.426;37.758;2023-03-25T06:58:07;97724.41;;;9.65;69.57
75617;BME280;64200;55.426;37.758;2023-03-25T07:03:09;97742.41;;;9.58;70.03
75617;BME280;64200;55.426;37.758;2023-03-25T07:08:10;97744.66;;;9.31;71.41
75617;BME280;64200;55.426;37.758;2023-03-25T07:13:11;97740.59;;;9.32;71.93
75617;BME280;64200;55.426;37.758;2023-03-25T07:18:11;97752.50;;;9.44;71.50
75617;BME280;64200;55.426;37.758;2023-03-25T07:23:12;97747.19;;;9.41;71.51
75617;BME280;64200;55.426;37.758;2023-03-25T07:28:12;97742.13;;;9.39;71.59
75617;BME280;64200;55.426;37.758;2023-03-25T07:33:13;97743.38;;;9.38;71.83
75617;BME280;64200;55.426;37.758;2023-03-25T07:38:14;97733.53;;;9.48;71.73
75617;BME280;64200;55.426;37.758;2023-03-25T07:43:14;97744.66;;;9.43;71.86
75617;BME280;64200;55.426;37.758;2023-03-25T07:48:15;97740.38;;;9.42;71.93
75617;BME280;64200;55.426;37.758;2023-03-25T07:53:16;97737.09;;;9.43;72.28
75617;BME280;64200;55.426;37.758;2023-03-25T07:58:17;97728.22;;;9.51;72.42
75617;BME280;64200;55.426;37.758;2023-03-25T08:03:18;97736.56;;;9.56;72.19
75617;BME280;64200;55.426;37.758;2023-03-25T08:08:18;97735.31;;;9.74;71.88
75617;BME280;64200;55.426;37.758;2023-03-25T08:13:19;97746.69;;;9.82;71.42
75617;BME280;64200;55.426;37.758;2023-03-25T08:18:20;97757.84;;;9.54;72.63
75617;BME280;64200;55.426;37.758;2023-03-25T08:23:23;97739.09;;;9.43;73.38
75617;BME280;64200;55.426;37.758;2023-03-25T08:28:26;97747.94;;;9.47;73.08
75617;BME280;64200;55.426;37.758;2023-03-25T08:33:27;97746.16;;;9.38;74.19
75617;BME280;64200;55.426;37.758;2023-03-25T08:38:33;97761.63;;;9.45;74.42
75617;BME280;64200;55.426;37.758;2023-03-25T08:43:34;97759.06;;;9.30;74.81
75617;BME280;64200;55.426;37.758;2023-03-25T08:48:34;97751.47;;;9.13;75.08
75617;BME280;64200;55.426;37.758;2023-03-25T08:53:35;97760.81;;;9.16;75.94
75617;BME280;64200;55.426;37.758;2023-03-25T08:58:37;97759.56;;;9.17;76.44
75617;BME280;64200;55.426;37.758;2023-03-25T09:03:37;97768.44;;;9.27;76.77
75617;BME280;64200;55.426;37.758;2023-03-25T09:08:40;97772.22;;;9.24;77.04
75617;BME280;64200;55.426;37.758;2023-03-25T09:13:40;97768.94;;;9.25;77.62
75617;BME280;64200;55.426;37.758;2023-03-25T09:18:41;97765.91;;;9.35;77.78
75617;BME280;64200;55.426;37.758;2023-03-25T09:23:41;97770.47;;;9.43;77.13
75617;BME280;64200;55.426;37.758;2023-03-25T09:28:42;97769.22;;;9.56;77.64
75617;BME280;64200;55.426;37.758;2023-03-25T09:33:43;97760.59;;;9.65;77.27
75617;BME280;64200;55.426;37.758;2023-03-25T09:38:43;97762.13;;;9.77;77.21
75617;BME280;64200;55.426;37.758;2023-03-25T09:44:24;97763.16;;;9.63;77.76
75617;BME280;64200;55.426;37.758;2023-03-25T09:49:24;97771.22;;;9.66;77.74
75617;BME280;64200;55.426;37.758;2023-03-25T09:54:30;97772.25;;;9.63;77.86
75617;BME280;64200;55.426;37.758;2023-03-25T09:59:42;97783.88;;;9.67;77.69
75617;BME280;64200;55.426;37.758;2023-03-25T10:25:40;97810.97;;;9.84;77.48
75617;BME280;64200;55.426;37.758;2023-03-25T10:30:50;97814.78;;;9.92;77.16
75617;BME280;64200;55.426;37.758;2023-03-25T10:35:52;97808.97;;;9.84;77.55
75617;BME280;64200;55.426;37.758;2023-03-25T10:46:42;97818.06;;;10.08;76.83
75617;BME280;64200;55.426;37.758;2023-03-25T10:51:50;97828.44;;;10.07;76.80
75617;BME280;64200;55.426;37.758;2023-03-25T10:57:21;97831.22;;;9.96;77.15
75617;BME280;64200;55.426;37.758;2023-03-25T11:02:26;97822.13;;;10.01;77.51
75617;BME280;64200;55.426;37.758;2023-03-25T11:07:39;97831.75;;;10.06;77.15
75617;BME280;64200;55.426;37.758;2023-03-25T11:12:41;97815.28;;;10.19;76.58
75617;BME280;64200;55.426;37.758;2023-03-25T11:17:45;97811.97;;;10.20;76.60
75617;BME280;64200;55.426;37.758;2023-03-25T11:22:50;97809.69;;;10.30;76.12
75617;BME280;64200;55.426;37.758;2023-03-25T11:27:58;97806.13;;;10.24;76.39
75617;BME280;64200;55.426;37.758;2023-03-25T11:33:13;97800.81;;;10.20;76.69
75617;BME280;64200;55.426;37.758;2023-03-25T11:38:21;97805.91;;;10.33;76.72
75617;BME280;64200;55.426;37.758;2023-03-25T11:43:25;97799.53;;;10.27;76.89
75617;BME280;64200;55.426;37.758;2023-03-25T11:48:30;97813.00;;;10.23;76.97
75617;BME280;64200;55.426;37.758;2023-03-25T11:53:32;97810.72;;;10.22;76.62
75617;BME280;64200;55.426;37.758;2023-03-25T11:58:34;97801.56;;;10.27;77.38
75617;BME280;64200;55.426;37.758;2023-03-25T12:03:36;97818.56;;;10.34;77.16
75617;BME280;64200;55.426;37.758;2023-03-25T12:08:52;97818.28;;;10.27;77.09
75617;BME280;64200;55.426;37.758;2023-03-25T12:24:52;97818.81;;;10.25;77.52
75617;BME280;64200;55.426;37.758;2023-03-25T12:35:27;97819.81;;;10.11;77.89
75617;BME280;64200;55.426;37.758;2023-03-25T12:40:58;97835.28;;;10.17;78.06
75617;BME280;64200;55.426;37.758;2023-03-25T12:46:21;97825.63;;;10.24;77.80
75617;BME280;64200;55.426;37.758;2023-03-25T13:07:52;97811.41;;;10.56;76.88
75617;BME280;64200;55.426;37.758;2023-03-25T13:12:59;97812.91;;;10.68;76.72
75617;BME280;64200;55.426;37.758;2023-03-25T13:23:21;97813.16;;;10.70;76.01
75617;BME280;64200;55.426;37.758;2023-03-25T13:28:43;97819.50;;;10.60;76.49
75617;BME280;64200;55.426;37.758;2023-03-25T13:34:05;97795.72;;;10.59;76.74
75617;BME280;64200;55.426;37.758;2023-03-25T13:39:19;97802.59;;;10.35;77.22
75617;BME280;64200;55.426;37.758;2023-03-25T13:44:31;97800.56;;;10.24;77.65
75617;BME280;64200;55.426;37.758;2023-03-25T13:49:44;97807.66;;;10.19;78.12
75617;BME280;64200;55.426;37.758;2023-03-25T13:54:50;97800.31;;;10.22;77.91
75617;BME280;64200;55.426;37.758;2023-03-25T14:11:39;97808.91;;;10.47;77.29
75617;BME280;64200;55.426;37.758;2023-03-25T14:16:54;97808.91;;;10.24;77.56
75617;BME280;64200;55.426;37.758;2023-03-25T14:21:57;97816.78;;;10.14;78.20
75617;BME280;64200;55.426;37.758;2023-03-25T14:27:01;97821.59;;;10.14;78.70
75617;BME280;64200;55.426;37.758;2023-03-25T14:37:09;97825.66;;;10.07;79.15
75617;BME280;64200;55.426;37.758;2023-03-25T14:47:52;97835.53;;;9.97;79.82
75617;BME280;64200;55.426;37.758;2023-03-25T14:53:02;97840.88;;;9.95;80.46
75617;BME280;64200;55.426;37.758;2023-03-25T14:58:21;97840.59;;;9.81;80.84
75617;BME280;64200;55.426;37.758;2023-03-25T15:03:32;97845.41;;;9.81;80.83
75617;BME280;64200;55.426;37.758;2023-03-25T15:08:39;97834.53;;;9.83;80.45
75617;BME280;64200;55.426;37.758;2023-03-25T15:13:45;97839.09;;;9.80;80.50
75617;BME280;64200;55.426;37.758;2023-03-25T15:18:57;97842.09;;;9.77;80.48
75617;BME280;64200;55.426;37.758;2023-03-25T15:24:09;97850.72;;;9.67;81.00
75617;BME280;64200;55.426;37.758;2023-03-25T15:40:29;97853.22;;;9.60;81.31
75617;BME280;64200;55.426;37.758;2023-03-25T15:45:54;97869.94;;;9.65;80.45
75617;BME280;64200;55.426;37.758;2023-03-25T15:51:19;97877.53;;;9.59;80.86
75617;BME280;64200;55.426;37.758;2023-03-25T15:56:29;97871.44;;;9.49;81.45
75617;BME280;64200;55.426;37.758;2023-03-25T16:01:34;97876.25;;;9.49;81.61
75617;BME280;64200;55.426;37.758;2023-03-25T16:06:41;97879.53;;;9.47;81.15
75617;BME280;64200;55.426;37.758;2023-03-25T16:11:42;97888.38;;;9.52;80.97
75617;BME280;64200;55.426;37.758;2023-03-25T16:16:54;97898.28;;;9.58;80.58
75617;BME280;64200;55.426;37.758;2023-03-25T16:22:00;97886.88;;;9.56;80.52
75617;BME280;64200;55.426;37.758;2023-03-25T16:27:10;97883.06;;;9.48;81.14
75617;BME280;64200;55.426;37.758;2023-03-25T16:32:21;97877.47;;;9.37;81.27
75617;BME280;64200;55.426;37.758;2023-03-25T16:37:22;97890.13;;;9.38;80.94
75617;BME280;64200;55.426;37.758;2023-03-25T16:47:30;97900.94;;;9.24;81.59
75617;BME280;64200;55.426;37.758;2023-03-25T16:52:32;97907.53;;;9.27;81.19
75617;BME280;64200;55.426;37.758;2023-03-25T16:57:37;97899.69;;;9.25;81.21
75617;BME280;64200;55.426;37.758;2023-03-25T17:02:39;97908.78;;;9.26;81.56
75617;BME280;64200;55.426;37.758;2023-03-25T17:07:41;97921.41;;;9.16;81.96
75617;BME280;64200;55.426;37.758;2023-03-25T17:12:42;97911.03;;;9.10;81.20
75617;BME280;64200;55.426;37.758;2023-03-25T17:17:45;97923.13;;;9.02;82.15
75617;BME280;64200;55.426;37.758;2023-03-25T17:23:00;97937.56;;;9.11;82.05
75617;BME280;64200;55.426;37.758;2023-03-25T17:33:33;97928.19;;;9.03;81.94
75617;BME280;64200;55.426;37.758;2023-03-25T17:38:37;97942.88;;;9.09;81.81
75617;BME280;64200;55.426;37.758;2023-03-25T17:43:59;97945.22;;;9.22;81.47
75617;BME280;64200;55.426;37.758;2023-03-25T17:49:00;97941.63;;;9.10;81.73
75617;BME280;64200;55.426;37.758;2023-03-25T17:54:00;97949.97;;;9.16;81.29
75617;BME280;64200;55.426;37.758;2023-03-25T17:59:03;97952.78;;;9.22;81.30
75617;BME280;64200;55.426;37.758;2023-03-25T18:04:04;97948.28;;;9.30;81.13
75617;BME280;64200;55.426;37.758;2023-03-25T18:14:14;97953.81;;;9.24;81.33
75617;BME280;64200;55.426;37.758;2023-03-25T18:19:21;97955.56;;;9.22;81.21
75617;BME280;64200;55.426;37.758;2023-03-25T18:24:22;97948.97;;;9.19;81.18
75617;BME280;64200;55.426;37.758;2023-03-25T18:29:24;97966.28;;;9.40;81.40
75617;BME280;64200;55.426;37.758;2023-03-25T18:34:27;97958.25;;;9.54;80.41
75617;BME280;64200;55.426;37.758;2023-03-25T18:39:28;97979.25;;;9.60;80.73
75617;BME280;64200;55.426;37.758;2023-03-25T18:44:31;97965.34;;;9.66;80.23
75617;BME280;64200;55.426;37.758;2023-03-25T18:49:32;97976.53;;;9.77;79.46
75617;BME280;64200;55.426;37.758;2023-03-25T18:54:32;97993.47;;;9.74;79.24
75617;BME280;64200;55.426;37.758;2023-03-25T18:59:33;97997.78;;;9.75;78.96
75617;BME280;64200;55.426;37.758;2023-03-25T19:04:33;97986.41;;;9.73;78.79
75617;BME280;64200;55.426;37.758;2023-03-25T19:09:35;97989.59;;;9.54;78.72
75617;BME280;64200;55.426;37.758;2023-03-25T19:14:36;97995.41;;;9.45;78.91
75617;BME280;64200;55.426;37.758;2023-03-25T19:19:36;97980.41;;;9.37;78.71
75617;BME280;64200;55.426;37.758;2023-03-25T19:24:38;97992.00;;;9.24;78.62
75617;BME280;64200;55.426;37.758;2023-03-25T19:29:39;97998.78;;;9.17;79.11
75617;BME280;64200;55.426;37.758;2023-03-25T19:34:39;97996.75;;;9.18;78.60
75617;BME280;64200;55.426;37.758;2023-03-25T19:39:40;97986.13;;;9.10;78.99
75617;BME280;64200;55.426;37.758;2023-03-25T19:44:42;97986.38;;;9.12;78.52
75617;BME280;64200;55.426;37.758;2023-03-25T19:49:42;97980.06;;;9.12;78.89
75617;BME280;64200;55.426;37.758;2023-03-25T19:54:43;97991.69;;;9.16;78.65
75617;BME280;64200;55.426;37.758;2023-03-25T19:59:44;97995.22;;;9.11;78.20
75617;BME280;64200;55.426;37.758;2023-03-25T20:04:44;97989.16;;;9.12;78.20
75617;BME280;64200;55.426;37.758;2023-03-25T20:09:45;97991.69;;;9.16;78.26
75617;BME280;64200;55.426;37.758;2023-03-25T20:14:46;97970.91;;;9.06;78.46
75617;BME280;64200;55.426;37.758;2023-03-25T20:19:47;97969.41;;;9.05;78.61
75617;BME280;64200;55.426;37.758;2023-03-25T20:24:48;97969.34;;;8.99;77.68
75617;BME280;64200;55.426;37.758;2023-03-25T20:29:48;97978.19;;;8.98;77.74
75617;BME280;64200;55.426;37.758;2023-03-25T20:34:49;97973.88;;;8.96;78.18
75617;BME280;64200;55.426;37.758;2023-03-25T20:39:49;97992.63;;;9.02;77.81
75617;BME280;64200;55.426;37.758;2023-03-25T20:44:50;97999.91;;;8.93;77.95
75617;BME280;64200;55.426;37.758;2023-03-25T20:49:50;98010.03;;;8.96;78.41
75617;BME280;64200;55.426;37.758;2023-03-25T20:54:53;97995.50;;;8.75;78.66
75617;BME280;64200;55.426;37.758;2023-03-25T20:59:54;98017.31;;;8.88;78.32
75617;BME280;64200;55.426;37.758;2023-03-25T21:04:55;98016.50;;;8.82;78.69
75617;BME280;64200;55.426;37.758;2023-03-25T21:09:57;98003.88;;;8.81;78.76
75617;BME280;64200;55.426;37.758;2023-03-25T21:14:58;97998.75;;;8.74;78.80
75617;BME280;64200;55.426;37.758;2023-03-25T21:19:58;97991.38;;;8.65;79.45
75617;BME280;64200;55.426;37.758;2023-03-25T21:24:59;97990.13;;;8.66;79.36
75617;BME280;64200;55.426;37.758;2023-03-25T21:30:00;97997.19;;;8.67;79.30
75617;BME280;64200;55.426;37.758;2023-03-25T21:35:03;97993.91;;;8.69;79.14
75617;BME280;64200;55.426;37.758;2023-03-25T21:40:10;97995.97;;;8.74;79.03
75617;BME280;64200;55.426;37.758;2023-03-25T21:45:12;97997.38;;;8.90;79.39
75617;BME280;64200;55.426;37.758;2023-03-25T21:50:14;97985.28;;;8.99;78.79
75617;BME280;64200;55.426;37.758;2023-03-25T21:55:16;98000.25;;;9.07;78.91
75617;BME280;64200;55.426;37.758;2023-03-25T22:00:17;98003.06;;;9.12;78.78
75617;BME280;64200;55.426;37.758;2023-03-25T22:05:18;98008.06;;;9.03;78.48
75617;BME280;64200;55.426;37.758;2023-03-25T22:10:19;98006.56;;;9.07;79.01
75617;BME280;64200;55.426;37.758;2023-03-25T22:15:19;97999.53;;;9.12;78.28
75617;BME280;64200;55.426;37.758;2023-03-25T22:20:20;98003.81;;;9.13;78.26
75617;BME280;64200;55.426;37.758;2023-03-25T22:25:20;98007.59;;;9.10;78.57
75617;BME280;64200;55.426;37.758;2023-03-25T22:30:21;98003.31;;;9.14;78.76
75617;BME280;64200;55.426;37.758;2023-03-25T22:35:22;97999.53;;;9.18;78.30
75617;BME280;64200;55.426;37.758;2023-03-25T22:40:23;98003.13;;;9.24;78.06
75617;BME280;64200;55.426;37.758;2023-03-25T22:45:23;98001.16;;;9.30;78.02
75617;BME280;64200;55.426;37.758;2023-03-25T22:50:24;97996.06;;;9.28;78.18
75617;BME280;64200;55.426;37.758;2023-03-25T22:55:25;97990.75;;;9.30;77.98
75617;BME280;64200;55.426;37.758;2023-03-25T23:00:26;97975.81;;;9.28;77.98
75617;BME280;64200;55.426;37.758;2023-03-25T23:05:27;97970.72;;;9.21;77.82
75617;BME280;64200;55.426;37.758;2023-03-25T23:10:28;97967.44;;;9.17;77.56
75617;BME280;64200;55.426;37.758;2023-03-25T23:15:28;97962.00;;;8.96;77.99
75617;BME280;64200;55.426;37.758;2023-03-25T23:20:29;97972.38;;;9.01;77.67
75617;BME280;64200;55.426;37.758;2023-03-25T23:25:30;97976.97;;;9.04;77.98
75617;BME280;64200;55.426;37.758;2023-03-25T23:30:31;97976.97;;;9.04;77.64
75617;BME280;64200;55.426;37.758;2023-03-25T23:35:31;97974.69;;;9.03;77.63
75617;BME280;64200;55.426;37.758;2023-03-25T23:40:32;97966.06;;;9.01;77.66
75617;BME280;64200;55.426;37.758;2023-03-25T23:45:32;97976.41;;;8.94;77.35
75617;BME280;64200;55.426;37.758;2023-03-25T23:50:34;97970.78;;;8.83;77.77
75617;BME280;64200;55.426;37.758;2023-03-25T23:55:34;97968.41;;;8.70;77.55
